sensor_id;sensor_type;location;lat;lon;timestamp;temperature;humidity
79698;SHT31;69168;42.708;23.286;2023-07-29T00:01:19;21.44;52.92
79698;SHT31;69168;42.708;23.286;2023-07-29T00:03:44;21.54;52.67
79698;SHT31;69168;42.708;23.286;2023-07-29T00:06:10;21.37;52.54
79698;SHT31;69168;42.708;23.286;2023-07-29T00:08:35;21.17;53.03
79698;SHT31;69168;42.708;23.286;2023-07-29T00:11:01;20.89;53.13
79698;SHT31;69168;42.708;23.286;2023-07-29T00:13:26;20.64;53.33
79698;SHT31;69168;42.708;23.286;2023-07-29T00:15:55;20.76;53.37
79698;SHT31;69168;42.708;23.286;2023-07-29T00:18:22;20.95;53.26
79698;SHT31;69168;42.708;23.286;2023-07-29T00:20:48;20.98;53.05
79698;SHT31;69168;42.708;23.286;2023-07-29T00:23:14;21.04;53.14
79698;SHT31;69168;42.708;23.286;2023-07-29T00:25:39;21.13;52.89
79698;SHT31;69168;42.708;23.286;2023-07-29T00:28:05;21.27;52.45
79698;SHT31;69168;42.708;23.286;2023-07-29T00:30:30;21.16;52.65
79698;SHT31;69168;42.708;23.286;2023-07-29T00:32:56;21.10;52.85
79698;SHT31;69168;42.708;23.286;2023-07-29T00:35:21;21.09;53.13
79698;SHT31;69168;42.708;23.286;2023-07-29T00:37:47;21.09;52.89
79698;SHT31;69168;42.708;23.286;2023-07-29T00:40:19;20.88;53.39
79698;SHT31;69168;42.708;23.286;2023-07-29T00:42:45;20.93;53.65
79698;SHT31;69168;42.708;23.286;2023-07-29T00:45:10;20.99;53.30
79698;SHT31;69168;42.708;23.286;2023-07-29T00:47:36;20.83;53.40
79698;SHT31;69168;42.708;23.286;2023-07-29T00:50:02;20.81;53.75
79698;SHT31;69168;42.708;23.286;2023-07-29T00:52:30;20.73;53.85
79698;SHT31;69168;42.708;23.286;2023-07-29T00:54:56;20.82;53.64
79698;SHT31;69168;42.708;23.286;2023-07-29T00:57:21;20.73;53.91
79698;SHT31;69168;42.708;23.286;2023-07-29T00:59:47;20.58;54.22
79698;SHT31;69168;42.708;23.286;2023-07-29T01:02:12;20.56;54.26
79698;SHT31;69168;42.708;23.286;2023-07-29T01:04:38;20.61;54.28
79698;SHT31;69168;42.708;23.286;2023-07-29T01:09:43;20.52;54.21
79698;SHT31;69168;42.708;23.286;2023-07-29T01:12:27;20.47;54.35
79698;SHT31;69168;42.708;23.286;2023-07-29T01:17:24;20.54;54.15
79698;SHT31;69168;42.708;23.286;2023-07-29T01:20:09;20.13;54.62
79698;SHT31;69168;42.708;23.286;2023-07-29T01:22:37;19.89;54.86
79698;SHT31;69168;42.708;23.286;2023-07-29T01:25:03;19.68;55.61
79698;SHT31;69168;42.708;23.286;2023-07-29T01:27:29;19.76;55.63
79698;SHT31;69168;42.708;23.286;2023-07-29T01:29:55;19.68;55.28
79698;SHT31;69168;42.708;23.286;2023-07-29T01:35:38;20.23;54.20
79698;SHT31;69168;42.708;23.286;2023-07-29T01:38:11;19.86;54.65
79698;SHT31;69168;42.708;23.286;2023-07-29T01:40:39;20.01;54.46
79698;SHT31;69168;42.708;23.286;2023-07-29T01:43:05;19.78;55.00
79698;SHT31;69168;42.708;23.286;2023-07-29T01:45:34;19.87;54.66
79698;SHT31;69168;42.708;23.286;2023-07-29T01:48:07;19.92;55.17
79698;SHT31;69168;42.708;23.286;2023-07-29T01:50:36;19.96;55.30
79698;SHT31;69168;42.708;23.286;2023-07-29T01:53:01;20.01;54.83
79698;SHT31;69168;42.708;23.286;2023-07-29T01:55:27;20.10;54.69
79698;SHT31;69168;42.708;23.286;2023-07-29T01:57:52;20.00;54.92
79698;SHT31;69168;42.708;23.286;2023-07-29T02:00:19;19.59;56.36
79698;SHT31;69168;42.708;23.286;2023-07-29T02:02:45;19.75;56.04
79698;SHT31;69168;42.708;23.286;2023-07-29T02:05:10;19.89;55.40
79698;SHT31;69168;42.708;23.286;2023-07-29T02:07:35;19.87;55.67
79698;SHT31;69168;42.708;23.286;2023-07-29T02:10:01;19.93;55.97
79698;SHT31;69168;42.708;23.286;2023-07-29T02:12:26;19.65;56.91
79698;SHT31;69168;42.708;23.286;2023-07-29T02:14:52;19.82;56.47
79698;SHT31;69168;42.708;23.286;2023-07-29T02:17:17;19.68;56.79
79698;SHT31;69168;42.708;23.286;2023-07-29T02:19:43;19.57;57.09
79698;SHT31;69168;42.708;23.286;2023-07-29T02:22:12;19.47;57.21
79698;SHT31;69168;42.708;23.286;2023-07-29T02:24:38;19.34;57.39
79698;SHT31;69168;42.708;23.286;2023-07-29T02:27:03;19.20;57.86
79698;SHT31;69168;42.708;23.286;2023-07-29T02:29:29;19.43;57.26
79698;SHT31;69168;42.708;23.286;2023-07-29T02:31:55;19.54;56.83
79698;SHT31;69168;42.708;23.286;2023-07-29T02:34:21;19.43;57.24
79698;SHT31;69168;42.708;23.286;2023-07-29T02:36:46;19.32;57.60
79698;SHT31;69168;42.708;23.286;2023-07-29T02:39:12;19.38;57.56
79698;SHT31;69168;42.708;23.286;2023-07-29T02:41:37;19.44;57.29
79698;SHT31;69168;42.708;23.286;2023-07-29T02:44:04;19.23;57.73
79698;SHT31;69168;42.708;23.286;2023-07-29T02:46:29;19.25;57.75
79698;SHT31;69168;42.708;23.286;2023-07-29T02:48:55;19.30;57.70
79698;SHT31;69168;42.708;23.286;2023-07-29T02:51:21;19.43;57.33
79698;SHT31;69168;42.708;23.286;2023-07-29T02:53:46;19.21;57.91
79698;SHT31;69168;42.708;23.286;2023-07-29T02:56:11;18.95;58.82
79698;SHT31;69168;42.708;23.286;2023-07-29T02:58:37;19.03;58.59
79698;SHT31;69168;42.708;23.286;2023-07-29T03:01:06;19.02;58.50
79698;SHT31;69168;42.708;23.286;2023-07-29T03:03:32;19.16;58.10
79698;SHT31;69168;42.708;23.286;2023-07-29T03:06:11;18.99;58.51
79698;SHT31;69168;42.708;23.286;2023-07-29T03:08:36;18.99;58.59
79698;SHT31;69168;42.708;23.286;2023-07-29T03:11:10;18.92;58.68
79698;SHT31;69168;42.708;23.286;2023-07-29T03:13:36;19.11;58.28
79698;SHT31;69168;42.708;23.286;2023-07-29T03:18:34;19.17;58.43
79698;SHT31;69168;42.708;23.286;2023-07-29T03:21:00;19.28;57.88
79698;SHT31;69168;42.708;23.286;2023-07-29T03:23:27;19.38;57.71
79698;SHT31;69168;42.708;23.286;2023-07-29T03:25:54;19.08;58.11
79698;SHT31;69168;42.708;23.286;2023-07-29T03:28:24;18.80;58.85
79698;SHT31;69168;42.708;23.286;2023-07-29T03:30:50;18.80;58.94
79698;SHT31;69168;42.708;23.286;2023-07-29T03:33:15;18.68;58.91
79698;SHT31;69168;42.708;23.286;2023-07-29T03:35:40;18.75;58.63
79698;SHT31;69168;42.708;23.286;2023-07-29T03:38:09;18.93;58.38
79698;SHT31;69168;42.708;23.286;2023-07-29T03:40:35;19.07;57.80
79698;SHT31;69168;42.708;23.286;2023-07-29T03:43:00;19.38;57.09
79698;SHT31;69168;42.708;23.286;2023-07-29T03:45:26;19.08;57.61
79698;SHT31;69168;42.708;23.286;2023-07-29T03:47:51;19.10;57.44
79698;SHT31;69168;42.708;23.286;2023-07-29T03:50:17;19.23;57.18
79698;SHT31;69168;42.708;23.286;2023-07-29T03:52:42;19.34;56.91
79698;SHT31;69168;42.708;23.286;2023-07-29T03:55:08;19.20;57.37
79698;SHT31;69168;42.708;23.286;2023-07-29T03:57:33;19.07;57.63
79698;SHT31;69168;42.708;23.286;2023-07-29T03:59:59;19.16;57.45
79698;SHT31;69168;42.708;23.286;2023-07-29T04:02:24;18.96;58.08
79698;SHT31;69168;42.708;23.286;2023-07-29T04:04:50;18.79;58.27
79698;SHT31;69168;42.708;23.286;2023-07-29T04:07:15;18.80;58.20
79698;SHT31;69168;42.708;23.286;2023-07-29T04:09:41;18.92;58.29
79698;SHT31;69168;42.708;23.286;2023-07-29T04:12:08;19.10;57.62
79698;SHT31;69168;42.708;23.286;2023-07-29T04:14:33;19.25;57.22
79698;SHT31;69168;42.708;23.286;2023-07-29T04:16:59;19.02;57.42
79698;SHT31;69168;42.708;23.286;2023-07-29T04:19:24;18.92;57.98
79698;SHT31;69168;42.708;23.286;2023-07-29T04:21:50;19.03;57.60
79698;SHT31;69168;42.708;23.286;2023-07-29T04:24:16;19.06;57.45
79698;SHT31;69168;42.708;23.286;2023-07-29T04:26:41;18.92;57.96
79698;SHT31;69168;42.708;23.286;2023-07-29T04:29:06;18.88;58.32
79698;SHT31;69168;42.708;23.286;2023-07-29T04:31:32;18.61;58.63
79698;SHT31;69168;42.708;23.286;2023-07-29T04:33:57;18.66;58.89
79698;SHT31;69168;42.708;23.286;2023-07-29T04:36:23;19.00;57.98
79698;SHT31;69168;42.708;23.286;2023-07-29T04:38:48;18.99;58.20
79698;SHT31;69168;42.708;23.286;2023-07-29T04:41:14;18.85;58.68
79698;SHT31;69168;42.708;23.286;2023-07-29T04:43:39;18.97;58.27
79698;SHT31;69168;42.708;23.286;2023-07-29T04:46:08;19.10;57.60
79698;SHT31;69168;42.708;23.286;2023-07-29T04:48:36;18.96;58.29
79698;SHT31;69168;42.708;23.286;2023-07-29T04:51:01;18.86;58.66
79698;SHT31;69168;42.708;23.286;2023-07-29T04:53:27;18.82;58.78
79698;SHT31;69168;42.708;23.286;2023-07-29T04:55:52;19.20;57.94
79698;SHT31;69168;42.708;23.286;2023-07-29T04:58:17;19.18;58.27
79698;SHT31;69168;42.708;23.286;2023-07-29T05:00:43;19.16;58.38
79698;SHT31;69168;42.708;23.286;2023-07-29T05:03:08;19.07;58.77
79698;SHT31;69168;42.708;23.286;2023-07-29T05:05:34;19.24;58.55
79698;SHT31;69168;42.708;23.286;2023-07-29T05:07:59;19.38;58.24
79698;SHT31;69168;42.708;23.286;2023-07-29T05:10:24;19.45;58.29
79698;SHT31;69168;42.708;23.286;2023-07-29T05:12:50;19.47;58.17
79698;SHT31;69168;42.708;23.286;2023-07-29T05:15:15;19.55;58.13
79698;SHT31;69168;42.708;23.286;2023-07-29T05:17:41;19.48;57.96
79698;SHT31;69168;42.708;23.286;2023-07-29T05:20:07;19.45;57.61
79698;SHT31;69168;42.708;23.286;2023-07-29T05:22:33;19.52;57.92
79698;SHT31;69168;42.708;23.286;2023-07-29T05:24:58;19.75;57.25
79698;SHT31;69168;42.708;23.286;2023-07-29T05:27:24;19.76;57.36
79698;SHT31;69168;42.708;23.286;2023-07-29T05:29:49;19.90;57.06
79698;SHT31;69168;42.708;23.286;2023-07-29T05:32:14;20.01;56.31
79698;SHT31;69168;42.708;23.286;2023-07-29T05:34:40;20.09;56.12
79698;SHT31;69168;42.708;23.286;2023-07-29T05:37:05;20.28;55.40
79698;SHT31;69168;42.708;23.286;2023-07-29T05:39:31;20.23;55.92
79698;SHT31;69168;42.708;23.286;2023-07-29T05:41:57;20.24;55.88
79698;SHT31;69168;42.708;23.286;2023-07-29T05:44:23;20.30;55.77
79698;SHT31;69168;42.708;23.286;2023-07-29T05:46:48;20.34;56.12
79698;SHT31;69168;42.708;23.286;2023-07-29T05:49:14;20.40;56.01
79698;SHT31;69168;42.708;23.286;2023-07-29T05:54:23;20.59;56.26
79698;SHT31;69168;42.708;23.286;2023-07-29T05:56:49;20.79;55.07
79698;SHT31;69168;42.708;23.286;2023-07-29T05:59:14;20.78;55.24
79698;SHT31;69168;42.708;23.286;2023-07-29T06:01:40;20.82;55.52
79698;SHT31;69168;42.708;23.286;2023-07-29T06:04:05;20.92;55.45
79698;SHT31;69168;42.708;23.286;2023-07-29T06:06:30;20.79;56.01
79698;SHT31;69168;42.708;23.286;2023-07-29T06:08:56;20.81;55.52
79698;SHT31;69168;42.708;23.286;2023-07-29T06:11:21;20.85;55.05
79698;SHT31;69168;42.708;23.286;2023-07-29T06:13:47;20.96;55.07
79698;SHT31;69168;42.708;23.286;2023-07-29T06:16:13;21.00;54.63
79698;SHT31;69168;42.708;23.286;2023-07-29T06:18:38;21.04;55.00
79698;SHT31;69168;42.708;23.286;2023-07-29T06:21:04;21.17;55.15
79698;SHT31;69168;42.708;23.286;2023-07-29T06:23:33;21.26;54.94
79698;SHT31;69168;42.708;23.286;2023-07-29T06:25:58;21.37;53.89
79698;SHT31;69168;42.708;23.286;2023-07-29T06:28:26;21.47;53.61
79698;SHT31;69168;42.708;23.286;2023-07-29T06:30:51;21.55;53.25
79698;SHT31;69168;42.708;23.286;2023-07-29T06:33:17;21.58;52.38
79698;SHT31;69168;42.708;23.286;2023-07-29T06:35:42;21.59;52.68
79698;SHT31;69168;42.708;23.286;2023-07-29T06:38:08;21.51;52.68
79698;SHT31;69168;42.708;23.286;2023-07-29T06:40:33;21.43;53.46
79698;SHT31;69168;42.708;23.286;2023-07-29T06:42:59;21.66;54.17
79698;SHT31;69168;42.708;23.286;2023-07-29T06:45:24;21.69;54.49
79698;SHT31;69168;42.708;23.286;2023-07-29T06:47:50;21.72;53.76
79698;SHT31;69168;42.708;23.286;2023-07-29T06:50:15;21.81;53.38
79698;SHT31;69168;42.708;23.286;2023-07-29T06:52:40;21.82;53.17
79698;SHT31;69168;42.708;23.286;2023-07-29T06:55:06;22.00;52.96
79698;SHT31;69168;42.708;23.286;2023-07-29T06:57:32;21.98;52.85
79698;SHT31;69168;42.708;23.286;2023-07-29T06:59:57;21.91;52.53
79698;SHT31;69168;42.708;23.286;2023-07-29T07:02:23;21.83;52.42
79698;SHT31;69168;42.708;23.286;2023-07-29T07:04:48;21.83;52.41
79698;SHT31;69168;42.708;23.286;2023-07-29T07:07:15;21.95;52.27
79698;SHT31;69168;42.708;23.286;2023-07-29T07:09:40;22.12;52.07
79698;SHT31;69168;42.708;23.286;2023-07-29T07:12:06;21.99;52.01
79698;SHT31;69168;42.708;23.286;2023-07-29T07:14:32;22.02;52.21
79698;SHT31;69168;42.708;23.286;2023-07-29T07:16:57;22.10;52.40
79698;SHT31;69168;42.708;23.286;2023-07-29T07:19:23;22.19;52.39
79698;SHT31;69168;42.708;23.286;2023-07-29T07:21:48;22.47;52.54
79698;SHT31;69168;42.708;23.286;2023-07-29T07:24:14;22.47;52.94
79698;SHT31;69168;42.708;23.286;2023-07-29T07:26:39;22.61;52.26
79698;SHT31;69168;42.708;23.286;2023-07-29T07:29:05;22.88;50.95
79698;SHT31;69168;42.708;23.286;2023-07-29T07:31:33;22.88;50.77
79698;SHT31;69168;42.708;23.286;2023-07-29T07:33:58;23.13;49.45
79698;SHT31;69168;42.708;23.286;2023-07-29T07:36:24;23.10;48.84
79698;SHT31;69168;42.708;23.286;2023-07-29T07:38:49;23.19;48.74
79698;SHT31;69168;42.708;23.286;2023-07-29T07:41:14;23.10;48.86
79698;SHT31;69168;42.708;23.286;2023-07-29T07:43:41;23.03;49.96
79698;SHT31;69168;42.708;23.286;2023-07-29T07:46:06;22.99;49.80
79698;SHT31;69168;42.708;23.286;2023-07-29T07:48:32;22.99;50.03
79698;SHT31;69168;42.708;23.286;2023-07-29T07:50:58;23.08;50.32
79698;SHT31;69168;42.708;23.286;2023-07-29T07:53:24;23.44;48.98
79698;SHT31;69168;42.708;23.286;2023-07-29T07:55:51;23.30;49.55
79698;SHT31;69168;42.708;23.286;2023-07-29T07:58:16;23.27;50.15
79698;SHT31;69168;42.708;23.286;2023-07-29T08:00:42;23.27;50.53
79698;SHT31;69168;42.708;23.286;2023-07-29T08:03:08;23.42;49.51
79698;SHT31;69168;42.708;23.286;2023-07-29T08:05:33;23.46;49.05
79698;SHT31;69168;42.708;23.286;2023-07-29T08:07:59;23.49;49.67
79698;SHT31;69168;42.708;23.286;2023-07-29T08:10:24;23.54;49.41
79698;SHT31;69168;42.708;23.286;2023-07-29T08:12:50;23.49;48.27
79698;SHT31;69168;42.708;23.286;2023-07-29T08:15:15;23.44;48.19
79698;SHT31;69168;42.708;23.286;2023-07-29T08:17:41;23.51;49.02
79698;SHT31;69168;42.708;23.286;2023-07-29T08:20:06;23.65;47.79
79698;SHT31;69168;42.708;23.286;2023-07-29T08:22:32;23.68;47.40
79698;SHT31;69168;42.708;23.286;2023-07-29T08:24:57;23.71;47.59
79698;SHT31;69168;42.708;23.286;2023-07-29T08:27:23;23.75;48.05
79698;SHT31;69168;42.708;23.286;2023-07-29T08:29:48;23.84;48.92
79698;SHT31;69168;42.708;23.286;2023-07-29T08:32:14;23.91;47.83
79698;SHT31;69168;42.708;23.286;2023-07-29T08:34:39;24.01;47.86
79698;SHT31;69168;42.708;23.286;2023-07-29T08:37:05;24.10;46.42
79698;SHT31;69168;42.708;23.286;2023-07-29T08:39:31;24.16;46.69
79698;SHT31;69168;42.708;23.286;2023-07-29T08:42:03;24.19;45.23
79698;SHT31;69168;42.708;23.286;2023-07-29T08:44:40;24.22;45.61
79698;SHT31;69168;42.708;23.286;2023-07-29T08:47:06;24.29;46.63
79698;SHT31;69168;42.708;23.286;2023-07-29T08:49:32;24.80;42.80
79698;SHT31;69168;42.708;23.286;2023-07-29T08:51:58;24.59;43.19
79698;SHT31;69168;42.708;23.286;2023-07-29T08:54:25;24.52;44.61
79698;SHT31;69168;42.708;23.286;2023-07-29T08:56:50;24.52;45.70
79698;SHT31;69168;42.708;23.286;2023-07-29T08:59:16;24.53;45.18
79698;SHT31;69168;42.708;23.286;2023-07-29T09:01:42;24.57;44.55
79698;SHT31;69168;42.708;23.286;2023-07-29T09:04:08;24.63;45.20
79698;SHT31;69168;42.708;23.286;2023-07-29T09:06:35;24.65;41.70
79698;SHT31;69168;42.708;23.286;2023-07-29T09:09:01;24.70;41.09
79698;SHT31;69168;42.708;23.286;2023-07-29T09:11:27;24.91;40.46
79698;SHT31;69168;42.708;23.286;2023-07-29T09:13:53;24.85;41.11
79698;SHT31;69168;42.708;23.286;2023-07-29T09:16:20;24.96;40.79
79698;SHT31;69168;42.708;23.286;2023-07-29T09:18:50;24.98;41.19
79698;SHT31;69168;42.708;23.286;2023-07-29T09:21:25;25.01;40.73
79698;SHT31;69168;42.708;23.286;2023-07-29T09:23:52;25.07;40.46
79698;SHT31;69168;42.708;23.286;2023-07-29T09:26:25;25.01;38.83
79698;SHT31;69168;42.708;23.286;2023-07-29T09:28:55;25.19;39.07
79698;SHT31;69168;42.708;23.286;2023-07-29T09:31:23;25.62;36.92
79698;SHT31;69168;42.708;23.286;2023-07-29T09:33:49;25.63;36.83
79698;SHT31;69168;42.708;23.286;2023-07-29T09:36:15;25.49;37.76
79698;SHT31;69168;42.708;23.286;2023-07-29T09:38:41;25.32;37.49
79698;SHT31;69168;42.708;23.286;2023-07-29T09:41:06;25.36;37.29
79698;SHT31;69168;42.708;23.286;2023-07-29T09:43:33;25.54;37.92
79698;SHT31;69168;42.708;23.286;2023-07-29T09:46:04;25.46;37.28
79698;SHT31;69168;42.708;23.286;2023-07-29T09:48:34;25.42;37.86
79698;SHT31;69168;42.708;23.286;2023-07-29T09:51:09;25.53;40.13
79698;SHT31;69168;42.708;23.286;2023-07-29T09:53:42;25.66;38.88
79698;SHT31;69168;42.708;23.286;2023-07-29T09:56:08;25.77;40.59
79698;SHT31;69168;42.708;23.286;2023-07-29T09:58:33;25.90;38.83
79698;SHT31;69168;42.708;23.286;2023-07-29T10:01:00;25.88;38.18
79698;SHT31;69168;42.708;23.286;2023-07-29T10:03:26;26.04;38.16
79698;SHT31;69168;42.708;23.286;2023-07-29T10:05:53;26.04;39.18
79698;SHT31;69168;42.708;23.286;2023-07-29T10:08:19;26.18;38.58
79698;SHT31;69168;42.708;23.286;2023-07-29T10:10:45;26.25;38.87
79698;SHT31;69168;42.708;23.286;2023-07-29T10:13:12;26.29;38.60
79698;SHT31;69168;42.708;23.286;2023-07-29T10:15:38;26.47;38.81
79698;SHT31;69168;42.708;23.286;2023-07-29T10:18:04;26.56;37.33
79698;SHT31;69168;42.708;23.286;2023-07-29T10:20:30;26.64;38.53
79698;SHT31;69168;42.708;23.286;2023-07-29T10:22:59;26.76;37.65
79698;SHT31;69168;42.708;23.286;2023-07-29T10:25:35;27.07;35.53
79698;SHT31;69168;42.708;23.286;2023-07-29T10:28:07;27.14;37.15
79698;SHT31;69168;42.708;23.286;2023-07-29T10:30:33;27.20;34.67
79698;SHT31;69168;42.708;23.286;2023-07-29T10:33:02;27.29;35.40
79698;SHT31;69168;42.708;23.286;2023-07-29T10:35:29;27.42;34.79
79698;SHT31;69168;42.708;23.286;2023-07-29T10:37:55;27.38;33.34
79698;SHT31;69168;42.708;23.286;2023-07-29T10:40:21;27.46;34.54
79698;SHT31;69168;42.708;23.286;2023-07-29T10:43:09;27.79;33.62
79698;SHT31;69168;42.708;23.286;2023-07-29T10:45:41;27.89;33.07
79698;SHT31;69168;42.708;23.286;2023-07-29T10:48:11;28.03;35.01
79698;SHT31;69168;42.708;23.286;2023-07-29T10:50:37;28.11;34.00
79698;SHT31;69168;42.708;23.286;2023-07-29T10:53:03;28.18;32.95
79698;SHT31;69168;42.708;23.286;2023-07-29T10:55:35;28.20;33.27
79698;SHT31;69168;42.708;23.286;2023-07-29T10:58:05;28.18;32.66
79698;SHT31;69168;42.708;23.286;2023-07-29T11:00:31;28.35;33.16
79698;SHT31;69168;42.708;23.286;2023-07-29T11:03:05;28.63;32.37
79698;SHT31;69168;42.708;23.286;2023-07-29T11:11:07;29.41;31.91
79698;SHT31;69168;42.708;23.286;2023-07-29T11:13:37;29.52;32.29
79698;SHT31;69168;42.708;23.286;2023-07-29T11:16:03;29.62;31.89
79698;SHT31;69168;42.708;23.286;2023-07-29T11:18:32;29.89;31.69
79698;SHT31;69168;42.708;23.286;2023-07-29T11:20:59;29.96;30.94
79698;SHT31;69168;42.708;23.286;2023-07-29T11:23:43;30.18;30.61
79698;SHT31;69168;42.708;23.286;2023-07-29T11:26:08;30.31;29.47
79698;SHT31;69168;42.708;23.286;2023-07-29T11:28:38;30.52;30.02
79698;SHT31;69168;42.708;23.286;2023-07-29T11:31:04;30.87;28.57
79698;SHT31;69168;42.708;23.286;2023-07-29T11:33:29;30.86;26.43
79698;SHT31;69168;42.708;23.286;2023-07-29T11:35:55;30.89;27.33
79698;SHT31;69168;42.708;23.286;2023-07-29T11:38:21;31.12;27.16
79698;SHT31;69168;42.708;23.286;2023-07-29T11:40:55;31.31;26.53
79698;SHT31;69168;42.708;23.286;2023-07-29T11:43:20;31.47;26.90
79698;SHT31;69168;42.708;23.286;2023-07-29T11:45:46;31.38;23.44
79698;SHT31;69168;42.708;23.286;2023-07-29T11:48:11;31.55;24.43
79698;SHT31;69168;42.708;23.286;2023-07-29T11:50:37;32.17;23.86
79698;SHT31;69168;42.708;23.286;2023-07-29T11:53:02;32.14;22.88
79698;SHT31;69168;42.708;23.286;2023-07-29T11:55:27;32.33;23.09
79698;SHT31;69168;42.708;23.286;2023-07-29T11:57:53;32.02;23.05
79698;SHT31;69168;42.708;23.286;2023-07-29T12:00:18;32.23;23.09
79698;SHT31;69168;42.708;23.286;2023-07-29T12:02:46;32.61;23.84
79698;SHT31;69168;42.708;23.286;2023-07-29T12:05:14;33.11;24.19
79698;SHT31;69168;42.708;23.286;2023-07-29T12:07:42;33.46;24.45
79698;SHT31;69168;42.708;23.286;2023-07-29T12:10:09;33.95;23.73
79698;SHT31;69168;42.708;23.286;2023-07-29T12:12:44;34.52;20.69
79698;SHT31;69168;42.708;23.286;2023-07-29T12:15:10;34.88;21.02
79698;SHT31;69168;42.708;23.286;2023-07-29T12:17:40;35.24;20.81
79698;SHT31;69168;42.708;23.286;2023-07-29T12:20:08;35.43;20.23
79698;SHT31;69168;42.708;23.286;2023-07-29T12:22:34;35.70;20.67
79698;SHT31;69168;42.708;23.286;2023-07-29T12:24:59;35.93;20.82
79698;SHT31;69168;42.708;23.286;2023-07-29T12:27:26;36.01;20.84
79698;SHT31;69168;42.708;23.286;2023-07-29T12:29:53;35.11;21.79
79698;SHT31;69168;42.708;23.286;2023-07-29T12:32:19;35.76;22.40
79698;SHT31;69168;42.708;23.286;2023-07-29T12:34:44;35.97;21.27
79698;SHT31;69168;42.708;23.286;2023-07-29T12:37:10;36.05;21.42
79698;SHT31;69168;42.708;23.286;2023-07-29T12:39:40;36.23;22.32
79698;SHT31;69168;42.708;23.286;2023-07-29T12:42:06;35.52;22.31
79698;SHT31;69168;42.708;23.286;2023-07-29T12:44:34;34.93;23.55
79698;SHT31;69168;42.708;23.286;2023-07-29T12:47:04;36.03;21.45
79698;SHT31;69168;42.708;23.286;2023-07-29T12:49:30;36.65;21.29
79698;SHT31;69168;42.708;23.286;2023-07-29T12:51:59;36.68;21.19
79698;SHT31;69168;42.708;23.286;2023-07-29T12:54:25;37.20;21.23
79698;SHT31;69168;42.708;23.286;2023-07-29T12:56:50;37.54;21.02
79698;SHT31;69168;42.708;23.286;2023-07-29T12:59:16;37.66;19.38
79698;SHT31;69168;42.708;23.286;2023-07-29T13:01:42;37.03;19.50
79698;SHT31;69168;42.708;23.286;2023-07-29T13:04:10;35.82;20.09
79698;SHT31;69168;42.708;23.286;2023-07-29T13:06:35;35.63;20.48
79698;SHT31;69168;42.708;23.286;2023-07-29T13:09:01;35.56;20.92
79698;SHT31;69168;42.708;23.286;2023-07-29T13:11:26;35.52;20.96
79698;SHT31;69168;42.708;23.286;2023-07-29T13:13:51;36.19;19.76
79698;SHT31;69168;42.708;23.286;2023-07-29T13:16:17;36.24;20.05
79698;SHT31;69168;42.708;23.286;2023-07-29T13:18:43;35.73;19.92
79698;SHT31;69168;42.708;23.286;2023-07-29T13:21:09;35.46;20.70
79698;SHT31;69168;42.708;23.286;2023-07-29T13:23:34;35.60;20.20
79698;SHT31;69168;42.708;23.286;2023-07-29T13:26:00;35.82;20.18
79698;SHT31;69168;42.708;23.286;2023-07-29T13:28:25;36.45;20.05
79698;SHT31;69168;42.708;23.286;2023-07-29T13:30:51;36.69;20.28
79698;SHT31;69168;42.708;23.286;2023-07-29T13:33:16;36.04;20.16
79698;SHT31;69168;42.708;23.286;2023-07-29T13:35:42;36.79;20.14
79698;SHT31;69168;42.708;23.286;2023-07-29T13:38:07;37.65;19.77
79698;SHT31;69168;42.708;23.286;2023-07-29T13:40:33;37.92;19.91
79698;SHT31;69168;42.708;23.286;2023-07-29T13:42:59;37.64;20.76
79698;SHT31;69168;42.708;23.286;2023-07-29T13:45:25;37.81;20.95
79698;SHT31;69168;42.708;23.286;2023-07-29T13:47:50;38.30;20.41
79698;SHT31;69168;42.708;23.286;2023-07-29T13:50:19;38.79;19.70
79698;SHT31;69168;42.708;23.286;2023-07-29T13:52:44;38.41;20.32
79698;SHT31;69168;42.708;23.286;2023-07-29T13:55:10;38.19;19.97
79698;SHT31;69168;42.708;23.286;2023-07-29T13:57:36;38.09;20.21
79698;SHT31;69168;42.708;23.286;2023-07-29T14:00:02;38.61;19.88
79698;SHT31;69168;42.708;23.286;2023-07-29T14:02:28;39.29;19.11
79698;SHT31;69168;42.708;23.286;2023-07-29T14:04:53;38.75;19.54
79698;SHT31;69168;42.708;23.286;2023-07-29T14:07:19;38.92;19.83
79698;SHT31;69168;42.708;23.286;2023-07-29T14:09:45;39.13;20.43
79698;SHT31;69168;42.708;23.286;2023-07-29T14:12:10;38.58;21.41
79698;SHT31;69168;42.708;23.286;2023-07-29T14:14:41;38.74;21.27
79698;SHT31;69168;42.708;23.286;2023-07-29T14:17:06;38.76;21.35
79698;SHT31;69168;42.708;23.286;2023-07-29T14:19:34;39.05;21.33
79698;SHT31;69168;42.708;23.286;2023-07-29T14:21:59;38.91;21.80
79698;SHT31;69168;42.708;23.286;2023-07-29T14:24:25;39.16;21.16
79698;SHT31;69168;42.708;23.286;2023-07-29T14:26:50;39.16;21.11
79698;SHT31;69168;42.708;23.286;2023-07-29T14:29:16;39.18;21.74
79698;SHT31;69168;42.708;23.286;2023-07-29T14:31:41;39.36;21.18
79698;SHT31;69168;42.708;23.286;2023-07-29T14:34:07;39.37;21.04
79698;SHT31;69168;42.708;23.286;2023-07-29T14:36:32;38.58;21.74
79698;SHT31;69168;42.708;23.286;2023-07-29T14:38:57;37.99;22.23
79698;SHT31;69168;42.708;23.286;2023-07-29T14:41:23;37.85;22.85
79698;SHT31;69168;42.708;23.286;2023-07-29T14:43:49;37.66;23.78
79698;SHT31;69168;42.708;23.286;2023-07-29T14:46:14;37.61;23.61
79698;SHT31;69168;42.708;23.286;2023-07-29T14:48:40;37.38;24.09
79698;SHT31;69168;42.708;23.286;2023-07-29T14:51:05;37.60;23.99
79698;SHT31;69168;42.708;23.286;2023-07-29T14:53:30;37.47;24.22
79698;SHT31;69168;42.708;23.286;2023-07-29T14:55:56;37.61;24.38
79698;SHT31;69168;42.708;23.286;2023-07-29T14:58:21;37.98;24.01
79698;SHT31;69168;42.708;23.286;2023-07-29T15:00:47;37.88;24.05
79698;SHT31;69168;42.708;23.286;2023-07-29T15:03:12;37.99;24.41
79698;SHT31;69168;42.708;23.286;2023-07-29T15:05:38;37.51;24.51
79698;SHT31;69168;42.708;23.286;2023-07-29T15:08:03;36.59;25.14
79698;SHT31;69168;42.708;23.286;2023-07-29T15:10:29;36.17;25.67
79698;SHT31;69168;42.708;23.286;2023-07-29T15:12:54;35.63;26.45
79698;SHT31;69168;42.708;23.286;2023-07-29T15:15:20;35.14;26.96
79698;SHT31;69168;42.708;23.286;2023-07-29T15:17:45;34.84;27.38
79698;SHT31;69168;42.708;23.286;2023-07-29T15:20:11;34.68;27.48
79698;SHT31;69168;42.708;23.286;2023-07-29T15:22:37;34.49;27.57
79698;SHT31;69168;42.708;23.286;2023-07-29T15:25:03;34.31;27.90
79698;SHT31;69168;42.708;23.286;2023-07-29T15:27:29;34.16;28.14
79698;SHT31;69168;42.708;23.286;2023-07-29T15:29:55;33.82;28.72